Time;durP1;ratioP1;P1;durP2;ratioP2;P2;SDS_P1;SDS_P2;PMS_P1;PMS_P2;Temp;Humidity;BMP_temperature;BMP_pressure;BME280_temperature;BME280_humidity;BME280_pressure;Samples;Min_cycle;Max_cycle;Signal;HPM_P1;HPM_P2
2021/12/28 00:00:44;;;;;;;;;1.00;1.00;;;;;11.05;88.16;98661.56;5058802;28;46609;-78
2021/12/28 00:03:09;;;;;;;;;0.00;0.00;;;;;10.81;88.38;98620.13;5058979;28;45426;-78
2021/12/28 00:05:35;;;;;;;;;0.00;0.00;;;;;10.70;88.54;98604.59;5059557;28;45250;-77
2021/12/28 00:08:00;;;;;;;;;0.75;0.75;;;;;10.71;89.55;98601.06;5059366;28;45417;-77
2021/12/28 00:10:26;;;;;;;;;1.00;1.00;;;;;10.60;88.62;98579.41;5059193;28;45331;-77
2021/12/28 00:12:51;;;;;;;;;1.50;1.50;;;;;10.72;88.57;98597.53;5058904;28;45346;-77
2021/12/28 00:18:04;;;;;;;;;0.50;0.50;;;;;10.71;90.43;98601.06;5058175;28;45437;-77
2021/12/28 00:20:36;;;;;;;;;0.50;0.50;;;;;10.62;90.67;98587.28;5058973;28;45341;-78
2021/12/28 00:23:07;;;;;;;;;0.00;0.00;;;;;10.79;90.38;98611.38;5058911;28;45300;-77
2021/12/28 00:25:33;;;;;;;;;1.00;1.00;;;;;10.78;91.33;98610.50;5058784;28;45315;-77
2021/12/28 00:27:58;;;;;;;;;1.00;1.00;;;;;10.69;90.41;98589.69;5058929;28;45284;-77
2021/12/28 00:30:24;;;;;;;;;1.75;1.75;;;;;10.69;91.40;98580.91;5058604;28;46609;-77
2021/12/28 00:32:53;;;;;;;;;2.00;2.00;;;;;10.87;91.17;98596.22;5058767;28;45338;-77
2021/12/28 00:35:39;;;;;;;;;1.00;1.00;;;;;10.76;90.66;98583.34;5058917;28;45339;-77
2021/12/28 00:38:07;;;;;;;;;0.00;0.00;;;;;10.94;89.31;98603.03;5058600;28;45495;-76
2021/12/28 00:40:34;;;;;;;;;0.25;0.25;;;;;10.67;89.93;98549.38;5058318;28;45660;-77
2021/12/28 00:42:59;;;;;;;;;1.00;1.00;;;;;10.94;90.63;98597.78;5058338;28;45247;-77
2021/12/28 00:45:26;;;;;;;;;2.00;1.00;;;;;10.77;89.75;98571.03;5040534;28;45345;-76
2021/12/28 00:47:52;;;;;;;;;3.50;1.75;;;;;10.83;91.19;98586.69;5058645;28;45303;-76
2021/12/28 00:50:19;;;;;;;;;0.50;0.50;;;;;10.68;90.77;98577.44;5058193;28;46156;-76
2021/12/28 00:52:45;;;;;;;;;1.00;1.00;;;;;10.74;91.49;98600.97;5058423;28;45271;-77
2021/12/28 00:55:12;;;;;;;;;3.25;2.00;;;;;10.68;91.37;98593.22;5058524;28;45441;-76
2021/12/28 00:57:37;;;;;;;;;0.75;0.75;;;;;10.76;91.42;98603.56;5040603;28;45451;-76
2021/12/28 01:00:07;;;;;;;;;1.00;1.00;;;;;10.69;90.86;98581.78;5058143;28;45431;-77
2021/12/28 01:02:33;;;;;;;;;0.75;0.75;;;;;10.85;90.77;98609.44;5058039;28;45353;-76
2021/12/28 01:04:58;;;;;;;;;0.00;0.00;;;;;10.81;91.33;98596.41;5058404;28;45449;-76
2021/12/28 01:07:24;;;;;;;;;1.75;1.75;;;;;10.80;91.16;98585.00;5058346;28;45316;-76
2021/12/28 01:09:49;;;;;;;;;2.00;2.00;;;;;10.67;90.27;98554.63;5040052;28;46657;-77
2021/12/28 01:12:14;;;;;;;;;1.00;1.00;;;;;10.94;90.98;98603.03;5057708;28;45326;-76
2021/12/28 01:14:40;;;;;;;;;3.25;1.75;;;;;10.90;91.05;98598.78;5058206;28;45387;-77
2021/12/28 01:17:06;;;;;;;;;0.25;0.25;;;;;10.91;90.99;98594.38;5058080;28;45164;-76
2021/12/28 01:19:32;;;;;;;;;2.00;2.00;;;;;10.99;91.15;98598.53;5057669;28;45368;-77
2021/12/28 01:21:57;;;;;;;;;1.00;1.00;;;;;11.05;91.05;98615.91;5057576;28;45528;-76
2021/12/28 01:24:24;;;;;;;;;2.00;0.50;;;;;11.12;90.83;98609.56;5057931;28;45215;-77
2021/12/28 01:26:49;;;;;;;;;0.00;0.00;;;;;11.13;91.00;98614.78;5058158;28;45325;-76
2021/12/28 01:29:15;;;;;;;;;0.00;0.00;;;;;11.15;91.11;98612.09;5056895;28;46147;-76
2021/12/28 01:31:40;;;;;;;;;1.00;1.00;;;;;11.11;91.13;98598.16;5057755;28;45280;-76
2021/12/28 01:34:08;;;;;;;;;0.00;0.00;;;;;11.26;91.26;98611.78;5057817;28;45472;-77
2021/12/28 01:36:33;;;;;;;;;1.00;1.00;;;;;11.22;90.25;98602.25;5040058;28;45394;-76
2021/12/28 01:39:00;;;;;;;;;0.00;0.00;;;;;11.23;90.08;98606.59;5057611;28;45461;-76
2021/12/28 01:41:25;;;;;;;;;0.00;0.00;;;;;11.23;90.68;98612.75;5057727;28;45283;-76
2021/12/28 01:44:00;;;;;;;;;0.00;0.00;;;;;11.16;90.97;98611.19;5057658;28;45424;-76
2021/12/28 01:46:25;;;;;;;;;0.00;0.00;;;;;11.01;90.80;98591.44;5058309;28;45264;-76
2021/12/28 01:48:51;;;;;;;;;0.00;0.00;;;;;11.06;90.64;98605.31;5057101;28;45477;-74
2021/12/28 01:51:19;;;;;;;;;3.25;0.00;;;;;11.18;90.48;98624.34;5057781;28;45264;-76
2021/12/28 01:53:47;;;;;;;;;0.00;0.00;;;;;11.19;90.20;98626.94;5057651;28;45312;-76
2021/12/28 01:56:16;;;;;;;;;1.00;0.00;;;;;11.21;91.14;98635.66;5057431;28;45549;-76
2021/12/28 01:58:42;;;;;;;;;0.00;0.00;;;;;11.34;90.55;98641.41;5057389;28;46379;-76
2021/12/28 02:01:08;;;;;;;;;0.00;0.00;;;;;11.32;90.71;98635.34;5057149;28;45267;-76
2021/12/28 02:03:36;;;;;;;;;0.00;0.00;;;;;11.45;89.04;98638.47;5057469;28;45357;-76
2021/12/28 02:06:02;;;;;;;;;0.00;0.00;;;;;11.61;89.10;98664.34;5039290;28;45350;-76
2021/12/28 02:08:28;;;;;;;;;0.00;0.00;;;;;11.70;88.47;98679.03;5057330;28;46147;-76
2021/12/28 02:10:56;;;;;;;;;0.00;0.00;;;;;11.79;87.71;98697.19;5057172;28;45444;-77
2021/12/28 02:13:23;;;;;;;;;0.00;0.00;;;;;11.80;87.48;98677.84;5057449;28;45356;-76
2021/12/28 02:15:49;;;;;;;;;0.00;0.00;;;;;11.91;87.00;98696.00;5057306;28;45474;-77
2021/12/28 02:18:20;;;;;;;;;0.00;0.00;;;;;11.96;86.96;98702.88;5057299;28;45575;-77
2021/12/28 02:20:46;;;;;;;;;0.00;0.00;;;;;11.88;86.27;98691.69;5057178;28;45231;-77
2021/12/28 02:23:13;;;;;;;;;0.00;0.00;;;;;12.00;85.79;98700.97;5057053;28;45267;-76
2021/12/28 02:25:39;;;;;;;;;0.00;0.00;;;;;12.09;84.84;98707.75;5057111;28;45252;-76
2021/12/28 02:28:07;;;;;;;;;0.00;0.00;;;;;12.11;84.33;98722.66;5057023;28;45739;-76
2021/12/28 02:30:34;;;;;;;;;0.00;0.00;;;;;12.07;84.96;98717.50;5056737;28;45444;-76
2021/12/28 02:33:00;;;;;;;;;0.00;0.00;;;;;11.99;83.85;98710.69;5057093;28;45267;-76
2021/12/28 02:35:27;;;;;;;;;0.00;0.00;;;;;11.74;84.59;98675.41;5038968;28;45420;-76
2021/12/28 02:37:53;;;;;;;;;0.00;0.00;;;;;11.96;85.00;98725.75;5056815;28;45514;-75
2021/12/28 02:40:23;;;;;;;;;0.00;0.00;;;;;11.84;84.92;98726.13;5057339;28;45260;-76
2021/12/28 02:42:49;;;;;;;;;0.50;0.50;;;;;11.80;85.11;98735.03;5060618;28;45557;-76
2021/12/28 02:45:27;;;;;;;;;1.00;0.00;;;;;11.56;84.58;98721.63;5060798;28;45236;-76
2021/12/28 02:47:53;;;;;;;;;0.00;0.00;;;;;11.78;84.29;98760.56;5060194;28;46581;-76
2021/12/28 02:50:28;;;;;;;;;0.00;0.00;;;;;11.83;85.02;98772.75;5060406;28;45544;-76
2021/12/28 02:52:54;;;;;;;;;0.00;0.00;;;;;11.86;84.94;98770.03;5060499;28;45243;-76
2021/12/28 02:55:22;;;;;;;;;0.00;0.00;;;;;11.88;85.23;98791.94;5060294;28;45338;-76
2021/12/28 02:57:51;;;;;;;;;1.00;0.00;;;;;11.81;84.38;98778.97;5060286;28;46714;-76
2021/12/28 03:00:35;;;;;;;;;0.00;0.00;;;;;11.94;84.47;98802.31;5060147;28;45232;-76
2021/12/28 03:03:14;;;;;;;;;0.00;0.00;;;;;11.83;84.68;98793.88;5060314;28;45244;-76
2021/12/28 03:05:42;;;;;;;;;1.00;0.00;;;;;11.84;84.05;98803.50;5060567;28;45470;-76
2021/12/28 03:08:08;;;;;;;;;0.00;0.00;;;;;11.93;84.64;98813.78;5060212;28;46583;-75
2021/12/28 03:10:36;;;;;;;;;0.00;0.00;;;;;11.91;84.25;98802.44;5060267;28;45275;-75
2021/12/28 03:13:03;;;;;;;;;0.00;0.00;;;;;11.99;83.66;98820.66;5060230;28;45235;-75
2021/12/28 03:15:29;;;;;;;;;0.75;0.00;;;;;11.87;83.65;98792.84;5060435;28;45328;-76
2021/12/28 03:17:54;;;;;;;;;0.75;0.50;;;;;11.91;83.28;98797.16;5060059;28;46633;-76
2021/12/28 03:20:20;;;;;;;;;0.00;0.00;;;;;12.09;83.76;98822.09;5060127;28;45231;-76
2021/12/28 03:22:45;;;;;;;;;0.75;0.00;;;;;11.93;82.94;98789.19;5066412;28;45346;-75
2021/12/28 03:25:12;;;;;;;;;0.75;0.00;;;;;12.02;82.59;98804.75;5069805;28;45397;-77
2021/12/28 03:27:38;;;;;;;;;1.50;0.00;;;;;12.07;82.72;98816.00;5069313;28;45686;-76
2021/12/28 03:30:10;;;;;;;;;0.00;0.00;;;;;12.06;83.24;98819.56;5068036;28;45375;-76
2021/12/28 03:32:36;;;;;;;;;0.00;0.00;;;;;12.06;82.69;98819.56;5067131;28;45753;-75
2021/12/28 03:35:03;;;;;;;;;0.00;0.00;;;;;12.09;82.41;98829.16;5066568;28;45318;-76
2021/12/28 03:37:34;;;;;;;;;1.00;1.00;;;;;12.10;82.94;98839.69;5067729;28;46674;-76
2021/12/28 03:40:00;;;;;;;;;1.25;0.00;;;;;11.85;82.56;98788.53;5065480;28;45390;-75
2021/12/28 03:42:26;;;;;;;;;2.00;0.00;;;;;12.14;82.78;98830.78;5061925;28;45973;-75
2021/12/28 03:44:52;;;;;;;;;1.50;0.00;;;;;12.12;82.88;98832.59;5061768;28;45395;-75
2021/12/28 03:47:17;;;;;;;;;0.00;0.00;;;;;12.09;83.16;98835.31;5061642;28;46694;-75
2021/12/28 03:49:43;;;;;;;;;0.00;0.00;;;;;12.05;82.25;98820.47;5059689;28;45354;-75
2021/12/28 03:52:09;;;;;;;;;0.00;0.00;;;;;12.09;82.31;98826.53;5058861;28;45358;-75
2021/12/28 03:54:34;;;;;;;;;0.00;0.00;;;;;12.18;82.27;98848.22;5059698;28;45244;-75
2021/12/28 03:57:02;;;;;;;;;0.00;0.00;;;;;12.07;82.27;98838.91;5059278;28;47225;-76
2021/12/28 03:59:27;;;;;;;;;1.00;0.00;;;;;12.18;82.25;98858.78;5059430;28;45243;-75
2021/12/28 04:01:53;;;;;;;;;0.00;0.00;;;;;12.19;82.48;98857.91;5059298;28;45359;-75
2021/12/28 04:04:19;;;;;;;;;0.25;0.00;;;;;12.20;82.52;98845.56;5059438;28;45215;-75
2021/12/28 04:06:44;;;;;;;;;8.00;0.75;;;;;12.20;82.52;98862.28;5059287;28;46316;-75
2021/12/28 04:09:12;;;;;;;;;0.00;0.00;;;;;12.19;81.66;98846.44;5058908;28;45240;-75
2021/12/28 04:11:39;;;;;;;;;0.00;0.00;;;;;12.13;82.06;98844.88;5059289;28;45265;-75
2021/12/28 04:14:07;;;;;;;;;2.00;1.00;;;;;12.23;81.96;98856.03;5059100;28;45482;-75
2021/12/28 04:16:34;;;;;;;;;1.00;1.00;;;;;12.25;82.18;98863.00;5059189;28;45503;-75
2021/12/28 04:19:01;;;;;;;;;0.50;0.00;;;;;12.11;81.73;98833.50;5058827;28;45299;-75
2021/12/28 04:21:27;;;;;;;;;0.25;0.00;;;;;12.19;81.82;98843.81;5058892;28;45343;-75
2021/12/28 04:23:53;;;;;;;;;0.00;0.00;;;;;12.31;81.92;98853.16;5058911;28;45406;-75
2021/12/28 04:26:20;;;;;;;;;1.25;0.00;;;;;12.26;81.38;98854.16;5058570;28;46437;-76
2021/12/28 04:28:45;;;;;;;;;0.00;0.00;;;;;12.31;81.76;98863.72;5058823;28;45262;-75
2021/12/28 04:31:11;;;;;;;;;0.25;0.00;;;;;12.21;81.48;98855.22;5058660;28;45307;-75
2021/12/28 04:33:38;;;;;;;;;0.25;0.25;;;;;12.34;81.64;98882.13;5059094;28;45506;-75
2021/12/28 04:36:10;;;;;;;;;0.75;0.75;;;;;12.24;81.51;98868.31;5058559;28;46012;-75
2021/12/28 04:38:36;;;;;;;;;0.00;0.00;;;;;12.37;80.47;98888.16;5058735;28;45229;-75
2021/12/28 04:41:02;;;;;;;;;1.00;0.00;;;;;12.37;80.90;98887.28;5058570;28;45256;-75
2021/12/28 04:43:28;;;;;;;;;0.00;0.00;;;;;12.41;80.76;98883.66;5058944;28;45520;-75
2021/12/28 04:45:53;;;;;;;;;0.00;0.00;;;;;12.41;80.22;98891.59;5058598;28;46014;-74
2021/12/28 04:48:19;;;;;;;;;0.00;0.00;;;;;12.39;80.48;98870.53;5040198;28;45321;-75
2021/12/28 04:50:45;;;;;;;;;0.50;0.25;;;;;12.42;80.83;98866.91;5057593;28;45251;-74
2021/12/28 04:53:12;;;;;;;;;0.00;0.00;;;;;12.47;80.40;98873.81;5058623;28;45280;-75
2021/12/28 04:55:40;;;;;;;;;1.50;0.00;;;;;12.42;80.40;98875.69;5058168;28;46614;-73
2021/12/28 04:58:06;;;;;;;;;0.00;0.00;;;;;12.47;79.77;98875.53;5058466;28;45269;-75
2021/12/28 05:00:32;;;;;;;;;1.00;0.00;;;;;12.32;80.35;98855.75;5058315;28;45444;-75
2021/12/28 05:02:57;;;;;;;;;2.00;0.00;;;;;12.33;79.62;98857.50;5058439;28;45439;-75
2021/12/28 05:05:23;;;;;;;;;0.00;0.00;;;;;12.49;80.33;98882.53;5057947;28;45299;-75
2021/12/28 05:07:48;;;;;;;;;0.00;0.00;;;;;12.46;79.61;98893.16;5058079;28;45440;-75
2021/12/28 05:10:14;;;;;;;;;0.00;0.00;;;;;12.39;79.88;98891.66;5058290;28;45743;-76
2021/12/28 05:12:39;;;;;;;;;0.00;0.00;;;;;12.44;79.11;98895.00;5040251;28;45450;-75
2021/12/28 05:15:06;;;;;;;;;0.00;0.00;;;;;12.49;79.29;98906.31;5057888;28;45369;-75
2021/12/28 05:17:32;;;;;;;;;1.25;0.50;;;;;12.49;78.81;98900.16;5058002;28;45344;-75
2021/12/28 05:19:57;;;;;;;;;0.00;0.00;;;;;12.42;78.58;98893.31;5057945;28;45398;-75
2021/12/28 05:22:22;;;;;;;;;4.25;1.00;;;;;12.53;78.14;98913.22;5058199;28;45350;-76
2021/12/28 05:24:48;;;;;;;;;0.00;0.00;;;;;12.39;78.26;98885.50;5057894;28;46550;-76
2021/12/28 05:27:14;;;;;;;;;0.00;0.00;;;;;12.58;78.34;98917.50;5057839;28;45319;-76
2021/12/28 05:29:40;;;;;;;;;0.00;0.00;;;;;12.49;77.96;98910.72;5057998;28;45357;-75
2021/12/28 05:32:06;;;;;;;;;0.50;0.50;;;;;12.66;78.25;98936.63;5058240;28;45481;-75
2021/12/28 05:34:31;;;;;;;;;0.00;0.00;;;;;12.61;77.72;98934.13;5057826;28;45222;-75
2021/12/28 05:36:56;;;;;;;;;0.00;0.00;;;;;12.64;77.56;98935.78;5057545;28;45165;-75
2021/12/28 05:39:22;;;;;;;;;1.00;0.00;;;;;12.59;77.54;98932.44;5058189;28;45318;-75
2021/12/28 05:41:48;;;;;;;;;0.00;0.00;;;;;12.54;78.15;98914.06;5057665;28;45458;-75
2021/12/28 05:44:15;;;;;;;;;0.00;0.00;;;;;12.62;77.40;98932.34;5057789;28;45581;-75
2021/12/28 05:46:40;;;;;;;;;0.00;0.00;;;;;12.54;77.54;98928.13;5057657;28;45447;-75
2021/12/28 05:49:06;;;;;;;;;0.00;0.00;;;;;12.71;77.53;98958.50;5057721;28;45377;-75
2021/12/28 05:51:31;;;;;;;;;2.75;0.00;;;;;12.70;77.07;98959.41;5057690;28;45358;-75
2021/12/28 05:53:57;;;;;;;;;1.75;0.00;;;;;12.64;76.63;98949.88;5057508;28;47110;-76
2021/12/28 05:56:22;;;;;;;;;0.00;0.00;;;;;12.72;76.85;98966.38;5057547;28;45272;-75
2021/12/28 05:58:48;;;;;;;;;0.00;0.00;;;;;12.66;77.28;98957.78;5057661;28;45385;-75
2021/12/28 06:01:13;;;;;;;;;0.00;0.00;;;;;12.67;77.11;98943.66;5039611;28;45319;-75
2021/12/28 06:03:39;;;;;;;;;1.00;0.00;;;;;12.74;76.54;98969.81;5057369;28;46433;-75
2021/12/28 06:06:04;;;;;;;;;0.75;0.00;;;;;12.67;76.52;98948.94;5057198;28;45326;-75
2021/12/28 06:08:30;;;;;;;;;0.25;0.25;;;;;12.76;76.10;98977.72;5057449;28;45322;-75
2021/12/28 06:10:55;;;;;;;;;0.75;0.75;;;;;12.73;75.77;98969.88;5057441;28;45299;-74
2021/12/28 06:13:21;;;;;;;;;3.25;0.25;;;;;12.79;76.27;98975.84;5055560;28;46932;-75
2021/12/28 06:15:46;;;;;;;;;0.00;0.00;;;;;12.76;75.53;98977.72;5058291;28;45205;-75
2021/12/28 06:18:12;;;;;;;;;0.00;0.00;;;;;12.76;75.92;98980.38;5061157;28;45493;-75
2021/12/28 06:20:37;;;;;;;;;1.00;1.00;;;;;12.68;75.85;98964.75;5061395;28;45196;-75
2021/12/28 06:23:03;;;;;;;;;0.75;0.75;;;;;12.72;75.46;98978.72;5060627;28;46463;-75
2021/12/28 06:25:28;;;;;;;;;0.00;0.00;;;;;12.80;75.11;99001.34;5060652;28;45257;-75
2021/12/28 06:27:54;;;;;;;;;2.50;1.00;;;;;12.76;75.34;98998.88;5065840;28;45457;-74
2021/12/28 06:30:19;;;;;;;;;2.00;0.75;;;;;12.77;75.55;98992.66;5066647;28;45418;-75
2021/12/28 06:32:45;;;;;;;;;0.50;0.50;;;;;12.76;74.87;99009.44;5060946;28;45396;-75
2021/12/28 06:35:11;;;;;;;;;0.25;0.25;;;;;12.71;74.54;98993.69;5060707;28;45276;-75
2021/12/28 06:37:37;;;;;;;;;3.75;1.00;;;;;12.63;74.76;98998.34;5060715;28;45331;-75
2021/12/28 06:40:05;;;;;;;;;1.50;1.50;;;;;12.31;75.04;98970.22;5060453;28;45281;-75
2021/12/28 06:42:30;;;;;;;;;2.00;0.00;;;;;12.56;75.38;99036.38;5060511;28;45297;-74
2021/12/28 06:44:56;;;;;;;;;1.00;1.00;;;;;12.42;75.54;99026.22;5060318;28;45383;-75
2021/12/28 06:47:21;;;;;;;;;1.00;0.00;;;;;12.35;75.05;99029.06;5042302;28;45330;-75
2021/12/28 06:49:47;;;;;;;;;0.00;0.00;;;;;12.24;75.20;99005.59;5060717;28;45453;-75
2021/12/28 06:52:13;;;;;;;;;1.75;1.75;;;;;12.31;74.79;99045.91;5042208;28;46473;-75
2021/12/28 06:54:40;;;;;;;;;1.00;1.00;;;;;12.30;74.64;99054.75;5060132;28;45256;-75
2021/12/28 06:57:10;;;;;;;;;3.50;2.00;;;;;12.25;74.82;99042.50;5060273;28;45275;-75
2021/12/28 06:59:38;;;;;;;;;3.75;2.00;;;;;12.17;75.25;99022.50;5060355;28;45420;-74
2021/12/28 07:02:06;;;;;;;;;0.00;0.00;;;;;12.20;74.87;99022.44;5059861;28;47105;-75
2021/12/28 07:04:33;;;;;;;;;2.00;2.00;;;;;12.21;75.13;99027.69;5060218;28;45340;-75
2021/12/28 07:06:58;;;;;;;;;0.50;0.50;;;;;12.33;74.46;99039.69;5060339;28;45321;-75
2021/12/28 07:09:24;;;;;;;;;1.00;1.00;;;;;12.34;74.09;99046.69;5060219;28;45312;-75
2021/12/28 07:11:50;;;;;;;;;1.50;0.75;;;;;12.37;74.22;99051.88;5060036;28;47013;-75
2021/12/28 07:14:15;;;;;;;;;0.75;0.75;;;;;12.33;73.84;99046.72;5060064;28;45481;-75
2021/12/28 07:16:41;;;;;;;;;1.25;1.00;;;;;12.41;73.88;99047.41;5060082;28;45464;-75
2021/12/28 07:19:10;;;;;;;;;2.00;1.00;;;;;12.31;74.40;99038.00;5060311;28;45256;-75
2021/12/28 07:21:37;;;;;;;;;1.00;1.00;;;;;12.37;73.76;99051.00;5059693;28;45335;-74
2021/12/28 07:24:04;;;;;;;;;2.00;2.00;;;;;12.28;73.37;99023.06;5041768;28;45306;-75
2021/12/28 07:26:30;;;;;;;;;1.50;1.50;;;;;12.35;73.49;99045.78;5059978;28;45389;-74
2021/12/28 07:28:55;;;;;;;;;2.75;0.00;;;;;12.45;73.36;99054.31;5059986;28;45298;-75
2021/12/28 07:31:21;;;;;;;;;3.75;1.00;;;;;12.47;73.10;99082.44;5059832;28;46504;-74
2021/12/28 07:33:46;;;;;;;;;1.00;1.00;;;;;12.42;73.09;99062.31;5059826;28;45258;-75
2021/12/28 07:36:11;;;;;;;;;0.00;0.00;;;;;12.49;73.50;99082.41;5059826;28;45309;-75
2021/12/28 07:38:37;;;;;;;;;1.75;0.00;;;;;12.51;73.32;99086.72;5059699;28;45371;-76
2021/12/28 07:41:02;;;;;;;;;3.00;2.00;;;;;12.42;73.35;99070.25;5057813;28;46854;-75
2021/12/28 07:43:28;;;;;;;;;1.00;1.00;;;;;12.53;73.25;99081.38;5059649;28;45265;-75
2021/12/28 07:45:53;;;;;;;;;5.75;2.00;;;;;12.50;74.02;99086.75;5059671;28;45257;-75
2021/12/28 07:48:19;;;;;;;;;1.75;1.25;;;;;12.50;73.76;99095.56;5059636;28;45238;-75
2021/12/28 07:50:44;;;;;;;;;3.25;1.75;;;;;12.49;74.05;99096.47;5059315;28;46235;-75
2021/12/28 07:53:09;;;;;;;;;2.75;1.25;;;;;12.53;73.60;99111.31;5059412;28;45195;-75
2021/12/28 07:55:35;;;;;;;;;3.50;0.75;;;;;12.48;73.85;99107.06;5059399;28;45240;-74
2021/12/28 07:58:01;;;;;;;;;1.50;1.50;;;;;12.47;73.73;99114.13;5059443;28;45337;-74
2021/12/28 08:00:28;;;;;;;;;2.75;1.25;;;;;12.46;74.06;99114.16;5059418;28;47252;-74
2021/12/28 08:02:54;;;;;;;;;2.50;0.00;;;;;12.47;74.46;99116.78;5058994;28;45322;-75
2021/12/28 08:05:19;;;;;;;;;1.00;1.00;;;;;12.52;74.70;99114.00;5059958;28;45511;-75
2021/12/28 08:07:45;;;;;;;;;2.50;1.25;;;;;12.49;74.87;99133.44;5060086;28;45287;-75
2021/12/28 08:10:13;;;;;;;;;2.50;1.50;;;;;12.55;74.89;99137.69;5059313;28;45430;-75
2021/12/28 08:12:39;;;;;;;;;1.75;1.75;;;;;12.50;75.51;99121.97;5059262;28;45433;-75
2021/12/28 08:15:05;;;;;;;;;3.25;1.50;;;;;12.47;75.96;99131.72;5059015;28;45241;-75
2021/12/28 08:17:30;;;;;;;;;1.00;1.00;;;;;12.44;75.71;99127.41;5059336;28;45165;-74
2021/12/28 08:19:56;;;;;;;;;3.00;1.00;;;;;12.49;76.57;99157.22;5058908;28;47176;-75
2021/12/28 08:22:22;;;;;;;;;0.00;0.00;;;;;12.51;76.16;99158.03;5058862;28;45256;-75
2021/12/28 08:24:47;;;;;;;;;1.00;0.25;;;;;12.48;76.08;99146.69;5058964;28;45338;-74
2021/12/28 08:27:13;;;;;;;;;3.00;0.75;;;;;12.51;76.77;99146.59;5059118;28;45366;-75
2021/12/28 08:29:38;;;;;;;;;3.00;1.00;;;;;12.58;76.98;99161.38;5058757;28;46533;-74
2021/12/28 08:32:04;;;;;;;;;1.00;1.00;;;;;12.53;77.27;99173.84;5058514;28;45358;-75
2021/12/28 08:34:29;;;;;;;;;2.00;1.00;;;;;12.50;77.75;99166.88;5057091;28;45405;-75
2021/12/28 08:36:55;;;;;;;;;1.25;0.25;;;;;12.58;78.45;99189.59;5059004;28;45315;-75
2021/12/28 08:39:20;;;;;;;;;2.00;2.00;;;;;12.46;80.64;99193.38;5057745;28;45929;-75
2021/12/28 08:41:46;;;;;;;;;0.50;0.50;;;;;12.41;80.62;99182.94;5058221;28;45302;-74
2021/12/28 08:44:11;;;;;;;;;0.00;0.00;;;;;12.37;80.92;99191.81;5058612;28;45487;-75
2021/12/28 08:46:39;;;;;;;;;0.00;0.00;;;;;12.41;81.75;99214.63;5058564;28;45191;-75
2021/12/28 08:49:05;;;;;;;;;1.00;1.00;;;;;12.42;82.58;99212.84;5040304;28;48177;-75
2021/12/28 08:51:31;;;;;;;;;1.00;1.00;;;;;12.36;82.36;99202.44;5057850;28;45236;-75
2021/12/28 08:53:57;;;;;;;;;2.00;2.00;;;;;12.42;82.94;99224.28;5057935;28;45500;-76
2021/12/28 08:56:22;;;;;;;;;3.50;2.00;;;;;12.42;82.64;99218.13;5039500;28;45413;-75
2021/12/28 08:58:48;;;;;;;;;3.00;1.75;;;;;12.18;82.64;99172.94;5057385;28;46509;-76
2021/12/28 09:01:13;;;;;;;;;1.75;1.75;;;;;12.23;82.40;99199.22;5057554;28;45616;-75
2021/12/28 09:03:39;;;;;;;;;0.00;0.00;;;;;12.27;82.88;99214.09;5057686;28;45287;-75
2021/12/28 09:06:05;;;;;;;;;6.00;1.00;;;;;12.19;82.29;99198.44;5057528;28;45425;-75
2021/12/28 09:08:31;;;;;;;;;1.50;0.50;;;;;12.23;81.38;99192.19;5057386;28;46135;-75
2021/12/28 09:10:56;;;;;;;;;3.25;1.00;;;;;12.33;81.57;99215.72;5057221;28;45227;-75
2021/12/28 09:13:22;;;;;;;;;3.75;1.00;;;;;12.26;80.73;99212.34;5057772;28;45347;-75
2021/12/28 09:15:47;;;;;;;;;1.00;1.00;;;;;12.21;80.09;99185.22;5057447;28;45269;-75
2021/12/28 09:18:13;;;;;;;;;1.75;1.00;;;;;12.34;79.63;99214.81;5057036;28;46184;-75
2021/12/28 09:20:39;;;;;;;;;1.00;0.00;;;;;12.42;78.23;99229.56;5057333;28;45200;-76
2021/12/28 09:23:09;;;;;;;;;2.50;2.00;;;;;12.31;77.14;99193.78;5057288;28;45303;-75
2021/12/28 09:25:35;;;;;;;;;2.50;1.00;;;;;12.24;75.88;99180.72;5057443;28;45429;-74
2021/12/28 09:28:00;;;;;;;;;0.25;0.00;;;;;12.44;75.90;99227.75;5056922;28;46172;-75
2021/12/28 09:30:26;;;;;;;;;1.00;0.50;;;;;12.46;74.91;99217.16;5038813;28;45380;-75
2021/12/28 09:32:52;;;;;;;;;1.00;1.00;;;;;12.46;73.85;99227.72;5057400;28;45303;-75
2021/12/28 09:35:18;;;;;;;;;0.25;0.00;;;;;12.48;73.78;99224.16;5057648;28;45203;-75
2021/12/28 09:37:44;;;;;;;;;3.75;0.50;;;;;12.32;73.90;99193.72;5057003;28;46230;-75
2021/12/28 09:40:11;;;;;;;;;3.50;2.00;;;;;12.57;72.68;99236.25;5039187;28;45350;-76
2021/12/28 09:42:37;;;;;;;;;1.50;1.50;;;;;12.59;71.88;99230.94;5057381;28;45501;-75
2021/12/28 09:45:06;;;;;;;;;5.00;2.00;;;;;12.54;71.35;99233.69;5057228;28;45432;-75
2021/12/28 09:47:32;;;;;;;;;3.00;1.00;;;;;12.48;70.50;99220.66;5057066;28;46826;-75
2021/12/28 09:49:58;;;;;;;;;3.50;1.00;;;;;12.62;70.77;99237.00;5056134;28;45421;-76
2021/12/28 09:52:23;;;;;;;;;2.50;1.00;;;;;12.53;70.17;99216.09;5057291;28;45374;-74
2021/12/28 09:54:49;;;;;;;;;0.00;0.00;;;;;12.71;69.70;99249.13;5057701;28;45239;-75
2021/12/28 09:57:16;;;;;;;;;7.00;2.00;;;;;12.69;69.35;99248.28;5056969;28;45687;-75
2021/12/28 09:59:42;;;;;;;;;3.00;2.25;;;;;12.66;68.68;99241.31;5057252;28;45441;-75
2021/12/28 10:02:10;;;;;;;;;8.75;2.75;;;;;12.75;68.59;99266.63;5057347;28;45345;-75
2021/12/28 10:04:37;;;;;;;;;4.00;2.00;;;;;12.65;67.86;99236.91;5057173;28;45310;-75
2021/12/28 10:07:24;;;;;;;;;3.00;3.00;;;;;12.76;66.04;99256.03;5057134;28;46210;-75
2021/12/28 10:09:50;;;;;;;;;4.00;1.75;;;;;12.74;66.05;99249.91;5056932;28;45208;-74
2021/12/28 10:12:37;;;;;;;;;4.00;2.00;;;;;12.71;65.69;99238.53;5057133;28;45437;-75
2021/12/28 10:15:09;;;;;;;;;4.00;3.00;;;;;12.72;65.43;99235.84;5039006;28;45513;-75
2021/12/28 10:17:37;;;;;;;;;3.75;2.00;;;;;12.72;65.21;99245.56;5039028;28;47018;-75
2021/12/28 10:20:10;;;;;;;;;2.25;2.00;;;;;12.80;65.21;99262.09;5056777;28;45446;-75
2021/12/28 10:22:38;;;;;;;;;1.00;1.00;;;;;12.79;65.63;99274.44;5056774;28;45421;-75
2021/12/28 10:25:09;;;;;;;;;2.00;2.00;;;;;12.80;64.37;99277.94;5056923;28;45279;-75
2021/12/28 10:27:36;;;;;;;;;8.00;4.75;;;;;12.79;64.04;99273.56;5038509;28;47905;-75
2021/12/28 10:30:13;;;;;;;;;7.50;2.50;;;;;12.80;64.33;99288.53;5056603;28;45369;-75
2021/12/28 10:32:41;;;;;;;;;5.25;3.00;;;;;12.76;64.46;99278.94;5056841;28;45468;-75
2021/12/28 10:35:11;;;;;;;;;11.00;4.75;;;;;12.65;64.15;99257.19;5056722;28;45429;-77
2021/12/28 10:37:39;;;;;;;;;4.50;2.75;;;;;12.78;63.80;99256.00;5056946;28;46644;-75
2021/12/28 10:40:10;;;;;;;;;3.25;1.75;;;;;12.79;63.00;99279.72;5056605;28;45311;-75
2021/12/28 10:42:59;;;;;;;;;9.25;4.25;;;;;12.83;62.86;99275.22;5038431;28;45479;-75
2021/12/28 10:45:37;;;;;;;;;5.25;3.75;;;;;12.83;62.99;99285.78;5038812;28;45442;-75
2021/12/28 10:48:14;;;;;;;;;1.75;1.75;;;;;12.86;63.02;99269.88;5056724;28;45487;-76
2021/12/28 10:50:54;;;;;;;;;4.75;3.75;;;;;12.91;63.10;99298.81;5056965;28;45235;-75
2021/12/28 10:53:23;;;;;;;;;9.75;4.25;;;;;12.95;62.06;99280.22;5057146;28;45291;-76
2021/12/28 10:55:57;;;;;;;;;5.25;4.00;;;;;13.00;62.38;99278.31;5039057;28;45533;-76
2021/12/28 10:58:31;;;;;;;;;7.00;4.50;;;;;13.06;62.44;99294.03;5056952;28;45350;-74
2021/12/28 11:01:06;;;;;;;;;5.50;3.50;;;;;13.10;62.31;99302.72;5057093;28;45302;-75
2021/12/28 11:03:34;;;;;;;;;6.50;4.00;;;;;13.00;62.16;99283.59;5060302;28;45455;-76
2021/12/28 11:06:07;;;;;;;;;9.75;4.50;;;;;13.07;62.26;99294.88;5042282;28;45593;-75
2021/12/28 11:08:33;;;;;;;;;4.00;3.00;;;;;12.96;62.39;99274.03;5059814;28;46402;-76
2021/12/28 11:11:08;;;;;;;;;8.50;5.00;;;;;13.07;61.99;99289.59;5059982;28;45384;-75
2021/12/28 11:13:35;;;;;;;;;4.75;4.75;;;;;12.93;61.62;99276.72;5060253;28;45231;-74
2021/12/28 11:16:02;;;;;;;;;2.25;2.25;;;;;13.11;61.81;99315.91;5060304;28;45247;-75
2021/12/28 11:18:42;;;;;;;;;5.25;4.00;;;;;13.13;61.46;99311.47;5041737;28;46621;-75
2021/12/28 11:21:16;;;;;;;;;4.50;3.25;;;;;13.19;61.60;99306.91;5041648;28;45257;-74
2021/12/28 11:23:43;;;;;;;;;3.50;3.50;;;;;13.32;61.64;99327.75;5060845;28;45233;-75
2021/12/28 11:26:20;;;;;;;;;6.50;3.50;;;;;13.37;61.31;99328.50;5060627;28;45492;-75
2021/12/28 11:29:05;;;;;;;;;6.00;4.50;;;;;13.49;61.16;99326.41;5060176;28;45438;-76
2021/12/28 11:31:35;;;;;;;;;3.50;3.50;;;;;13.67;60.13;99304.75;5059772;28;45329;-76
2021/12/28 11:34:18;;;;;;;;;10.50;4.50;;;;;14.12;58.89;99330.81;5060025;28;45334;-75
2021/12/28 11:36:47;;;;;;;;;8.75;4.75;;;;;14.33;58.22;99348.75;5060022;28;45314;-75